Time;durP1;ratioP1;P1;durP2;ratioP2;P2;SDS_P1;SDS_P2;PMS_P1;PMS_P2;Temp;Humidity;BMP_temperature;BMP_pressure;BME280_temperature;BME280_humidity;BME280_pressure;Samples;Min_cycle;Max_cycle;Signal;HPM_P1;HPM_P2
2022/01/23 00:02:27;;;;;;;28.50;18.10;;;1.70;99.90;;;;;;5049638;28;20056;-78
2022/01/23 00:04:53;;;;;;;27.27;16.30;;;1.60;99.90;;;;;;5048011;28;20033;-78
2022/01/23 00:07:19;;;;;;;28.80;17.40;;;1.60;99.90;;;;;;5048356;28;20029;-78
2022/01/23 00:09:44;;;;;;;29.10;17.33;;;1.60;99.90;;;;;;5049205;28;20032;-78
2022/01/23 00:12:15;;;;;;;33.30;18.80;;;1.60;99.90;;;;;;5049534;28;20374;-78
2022/01/23 00:17:33;;;;;;;24.50;13.37;;;1.60;99.90;;;;;;5049657;28;20059;-78
2022/01/23 00:20:01;;;;;;;34.00;19.70;;;1.50;99.90;;;;;;5047977;28;20367;-78
2022/01/23 00:22:51;;;;;;;37.47;19.63;;;1.50;99.90;;;;;;5049456;28;20475;-78
2022/01/23 00:30:48;;;;;;;28.90;17.30;;;1.40;99.90;;;;;;5048884;28;20064;-78
2022/01/23 00:33:15;;;;;;;31.73;18.17;;;1.50;99.90;;;;;;5049366;28;20473;-78
2022/01/23 00:35:44;;;;;;;30.23;18.10;;;1.40;99.90;;;;;;5049331;28;20033;-78
2022/01/23 00:38:11;;;;;;;32.93;19.03;;;1.50;99.90;;;;;;5049265;28;20039;-78
2022/01/23 00:40:38;;;;;;;34.43;17.57;;;1.40;99.90;;;;;;5049124;28;20111;-78
2022/01/23 00:43:26;;;;;;;34.70;17.13;;;1.40;99.90;;;;;;5048939;28;20037;-78
2022/01/23 00:45:57;;;;;;;29.47;17.30;;;1.40;99.90;;;;;;5048928;28;20029;-78
2022/01/23 00:48:28;;;;;;;31.10;17.90;;;1.40;99.90;;;;;;5049211;28;20079;-78
2022/01/23 00:50:53;;;;;;;28.07;16.17;;;1.50;99.90;;;;;;5049076;28;20051;-78
2022/01/23 00:53:19;;;;;;;34.30;17.43;;;1.50;99.90;;;;;;5052362;28;20025;-78
2022/01/23 00:55:47;;;;;;;27.30;16.77;;;1.50;99.90;;;;;;5052654;28;20083;-78
2022/01/23 00:58:14;;;;;;;29.70;16.60;;;1.60;99.90;;;;;;5052794;28;20021;-78
2022/01/23 01:00:41;;;;;;;27.20;16.43;;;1.60;99.90;;;;;;5051428;28;20025;-78
2022/01/23 01:03:07;;;;;;;30.77;16.93;;;1.50;99.90;;;;;;5052487;28;20033;-78
2022/01/23 01:05:34;;;;;;;26.73;15.77;;;1.50;99.90;;;;;;5052259;28;20032;-78
2022/01/23 01:08:02;;;;;;;31.17;17.57;;;1.50;99.90;;;;;;5052673;28;20109;-78
2022/01/23 01:10:37;;;;;;;29.50;16.97;;;1.50;99.90;;;;;;5052431;28;20025;-78
2022/01/23 01:13:05;;;;;;;24.95;16.27;;;1.50;99.90;;;;;;5052288;28;20013;-78
2022/01/23 01:31:29;;;;;;;;;;;1.50;99.90;;;;;;5053020;28;20086;-78
2022/01/23 01:34:06;;;;;;;27.53;15.87;;;1.50;99.90;;;;;;5051799;28;19917;-78
2022/01/23 01:36:44;;;;;;;30.37;17.07;;;1.50;99.90;;;;;;5052240;28;20017;-78
2022/01/23 01:39:11;;;;;;;30.10;16.57;;;1.50;99.90;;;;;;5051424;28;20082;-78
2022/01/23 01:41:38;;;;;;;29.03;17.47;;;1.50;99.90;;;;;;5052149;28;20032;-78
2022/01/23 01:44:05;;;;;;;32.60;18.43;;;1.50;99.90;;;;;;5051383;28;20045;-78
2022/01/23 01:46:31;;;;;;;29.13;17.40;;;1.50;99.90;;;;;;5055748;28;20039;-79
2022/01/23 01:48:57;;;;;;;30.90;17.80;;;1.50;99.90;;;;;;5064117;28;20108;-79
2022/01/23 01:51:23;;;;;;;34.90;18.00;;;1.50;99.90;;;;;;5064107;28;20021;-79
2022/01/23 01:53:53;;;;;;;32.60;19.00;;;1.50;99.90;;;;;;5063241;28;20020;-79
2022/01/23 01:56:19;;;;;;;28.63;17.20;;;1.50;99.90;;;;;;5063095;28;20024;-80
2022/01/23 02:09:26;;;;;;;33.23;17.93;;;1.50;99.90;;;;;;5056653;28;20424;-79
2022/01/23 02:12:34;;;;;;;31.40;18.17;;;1.50;99.90;;;;;;5060661;28;20107;-80
2022/01/23 02:57:57;;;;;;;32.67;18.80;;;1.40;99.90;;;;;;5057324;28;20365;-79
2022/01/23 03:00:32;;;;;;;36.80;18.07;;;1.40;99.90;;;;;;5057754;28;20092;-79
2022/01/23 03:03:09;;;;;;;29.30;16.98;;;1.40;99.90;;;;;;5056997;28;20070;-80
2022/01/23 03:05:37;;;;;;;30.93;17.80;;;1.40;99.90;;;;;;5059292;28;20047;-79
2022/01/23 03:08:31;;;;;;;31.27;17.77;;;1.40;99.90;;;;;;5059917;28;20079;-80
2022/01/23 03:11:06;;;;;;;26.17;16.73;;;1.40;99.90;;;;;;5059805;28;20028;-80
2022/01/23 03:13:52;;;;;;;29.63;17.03;;;1.40;99.90;;;;;;5061045;28;20021;-80
2022/01/23 03:24:07;;;;;;;30.20;17.47;;;1.40;99.90;;;;;;5061916;28;20056;-80
2022/01/23 03:29:29;;;;;;;29.80;17.23;;;1.40;99.90;;;;;;5064776;28;20021;-79
2022/01/23 03:34:23;;;;;;;28.67;16.43;;;1.40;99.90;;;;;;5065509;28;20025;-80
2022/01/23 03:36:49;;;;;;;31.47;17.33;;;1.40;99.90;;;;;;5063162;28;20016;-79
2022/01/23 03:39:15;;;;;;;28.67;17.00;;;1.40;99.90;;;;;;5063913;28;20067;-78
2022/01/23 03:41:43;;;;;;;28.30;16.20;;;1.40;99.90;;;;;;5062718;28;20032;-79
2022/01/23 03:44:10;;;;;;;28.57;15.73;;;1.40;99.90;;;;;;5062803;28;20087;-78
2022/01/23 03:49:33;;;;;;;26.80;15.73;;;1.40;99.90;;;;;;5065082;28;20024;-79
2022/01/23 03:52:10;;;;;;;28.53;15.40;;;1.40;99.90;;;;;;5066687;28;20021;-80
2022/01/23 03:54:37;;;;;;;25.37;15.50;;;1.40;99.90;;;;;;5066384;28;20017;-78
2022/01/23 03:57:05;;;;;;;28.17;15.90;;;1.40;99.90;;;;;;5066466;28;20017;-79
2022/01/23 03:59:33;;;;;;;27.13;14.93;;;1.40;99.90;;;;;;5064647;28;20037;-79
2022/01/23 04:01:59;;;;;;;25.87;15.27;;;1.40;99.90;;;;;;5063591;28;20032;-78
2022/01/23 04:06:53;;;;;;;24.30;13.90;;;1.40;99.90;;;;;;5066531;28;20424;-79
2022/01/23 04:09:18;;;;;;;26.73;15.87;;;1.40;99.90;;;;;;5082193;28;20032;-80
2022/01/23 04:11:45;;;;;;;26.43;14.97;;;1.40;99.90;;;;;;5067327;28;20055;-79
2022/01/23 04:14:13;;;;;;;26.27;13.57;;;1.40;99.90;;;;;;5060555;28;20021;-79
2022/01/23 04:47:13;;;;;;;23.23;14.07;;;1.40;99.90;;;;;;5054213;28;20480;-79
2022/01/23 05:00:21;;;;;;;17.50;10.63;;;1.40;99.90;;;;;;5053905;28;20067;-78
2022/01/23 05:05:26;;;;;;;20.17;11.90;;;1.40;99.90;;;;;;5053332;28;20106;-78
2022/01/23 05:07:52;;;;;;;18.17;10.97;;;1.40;99.90;;;;;;5054176;28;20492;-78
2022/01/23 05:10:18;;;;;;;18.63;11.87;;;1.40;99.90;;;;;;5053815;28;20021;-79
2022/01/23 05:12:43;;;;;;;22.83;12.43;;;1.40;99.90;;;;;;5053930;28;20123;-79
2022/01/23 05:15:11;;;;;;;17.73;11.37;;;1.40;99.90;;;;;;5053683;28;20029;-79
2022/01/23 05:17:37;;;;;;;17.87;11.60;;;1.40;99.90;;;;;;5054142;28;20021;-79
2022/01/23 05:20:05;;;;;;;17.53;11.73;;;1.40;99.90;;;;;;5052352;28;20029;-78
2022/01/23 05:25:16;;;;;;;17.63;11.43;;;1.40;99.90;;;;;;5053945;28;20372;-78
2022/01/23 05:27:41;;;;;;;17.33;11.60;;;1.40;99.90;;;;;;5054300;28;20021;-79
2022/01/23 05:30:07;;;;;;;18.53;11.43;;;1.40;99.90;;;;;;5053826;28;20027;-78
2022/01/23 05:32:40;;;;;;;18.07;11.47;;;1.40;99.90;;;;;;5045422;28;20466;-79
2022/01/23 05:35:07;;;;;;;17.90;11.50;;;1.40;99.90;;;;;;5051040;28;20382;-77
2022/01/23 05:37:33;;;;;;;18.10;11.73;;;1.40;99.90;;;;;;5049292;28;20032;-77
2022/01/23 05:39:59;;;;;;;17.37;11.13;;;1.40;99.90;;;;;;5053623;28;20028;-77
2022/01/23 05:42:25;;;;;;;16.87;10.70;;;1.40;99.90;;;;;;5050850;28;20386;-78
2022/01/23 05:44:51;;;;;;;16.70;10.43;;;1.40;99.90;;;;;;5049156;28;20049;-77
2022/01/23 05:47:17;;;;;;;17.07;11.37;;;1.40;99.90;;;;;;5044470;28;20460;-78
2022/01/23 05:49:42;;;;;;;17.30;11.70;;;1.40;99.90;;;;;;5041683;28;20025;-77
2022/01/23 05:52:08;;;;;;;16.23;10.67;;;1.40;99.90;;;;;;5045326;28;20029;-77
2022/01/23 05:54:35;;;;;;;16.93;12.00;;;1.40;99.90;;;;;;5052282;28;20466;-77
2022/01/23 05:57:01;;;;;;;21.50;11.17;;;1.40;99.90;;;;;;5040234;28;20583;-77
2022/01/23 05:59:26;;;;;;;18.30;12.47;;;1.40;99.90;;;;;;5047680;28;20108;-77
2022/01/23 06:01:54;;;;;;;18.87;11.70;;;1.40;99.90;;;;;;5053683;28;20028;-77
2022/01/23 06:04:20;;;;;;;19.17;11.70;;;1.40;99.90;;;;;;5052426;28;20443;-77
2022/01/23 06:06:46;;;;;;;20.33;12.77;;;1.40;99.90;;;;;;5053726;28;20021;-77
2022/01/23 06:09:12;;;;;;;20.47;12.53;;;1.40;99.90;;;;;;5053750;28;20033;-77
2022/01/23 06:11:38;;;;;;;20.93;13.10;;;1.40;99.90;;;;;;5053779;28;20021;-77
2022/01/23 06:14:04;;;;;;;18.63;12.70;;;1.40;99.90;;;;;;5053296;28;20382;-77
2022/01/23 06:16:29;;;;;;;16.93;12.20;;;1.40;99.90;;;;;;5052432;28;20016;-77
2022/01/23 06:18:55;;;;;;;17.30;11.60;;;1.40;99.90;;;;;;5053128;28;20029;-77
2022/01/23 06:21:21;;;;;;;17.27;11.83;;;1.40;99.90;;;;;;5053721;28;20033;-77
2022/01/23 06:23:55;;;;;;;18.37;11.37;;;1.40;99.90;;;;;;5045342;28;20040;-77
2022/01/23 06:26:22;;;;;;;16.43;11.73;;;1.50;99.90;;;;;;5053523;28;20025;-77
2022/01/23 06:29:00;;;;;;;18.57;13.03;;;1.50;99.90;;;;;;5051714;28;20103;-77
2022/01/23 06:31:25;;;;;;;18.70;11.90;;;1.40;99.90;;;;;;5042653;28;20382;-77
2022/01/23 06:33:51;;;;;;;20.43;12.53;;;1.40;99.90;;;;;;5053768;28;20029;-80
2022/01/23 06:36:17;;;;;;;20.33;12.73;;;1.40;99.90;;;;;;5039571;28;20175;-76
2022/01/23 06:38:42;;;;;;;20.90;13.77;;;1.50;99.90;;;;;;5044339;28;20037;-77
2022/01/23 06:41:08;;;;;;;21.40;13.50;;;1.50;99.90;;;;;;5050524;28;20025;-79
2022/01/23 06:43:34;;;;;;;19.70;12.73;;;1.40;99.90;;;;;;5042237;28;20037;-78
2022/01/23 06:45:59;;;;;;;20.57;13.87;;;1.40;99.90;;;;;;5051662;28;20028;-77
2022/01/23 06:48:25;;;;;;;22.10;14.17;;;1.40;99.90;;;;;;5051588;28;20037;-77
2022/01/23 06:50:50;;;;;;;18.67;12.90;;;1.40;99.90;;;;;;5052307;28;20493;-77
2022/01/23 06:53:16;;;;;;;23.73;14.33;;;1.40;99.90;;;;;;5050369;28;20048;-78
2022/01/23 06:55:42;;;;;;;23.23;14.30;;;1.40;99.90;;;;;;5052900;28;20024;-78
2022/01/23 06:58:07;;;;;;;23.90;14.53;;;1.40;99.90;;;;;;5039015;28;20449;-78
2022/01/23 07:00:33;;;;;;;21.57;14.27;;;1.40;99.90;;;;;;5052969;28;20037;-78
2022/01/23 07:02:59;;;;;;;22.87;15.17;;;1.40;99.90;;;;;;5052735;28;20035;-78
2022/01/23 07:05:25;;;;;;;21.83;14.60;;;1.30;99.90;;;;;;5052756;28;20033;-78
2022/01/23 07:07:51;;;;;;;22.27;14.53;;;1.30;99.90;;;;;;5053117;28;20033;-78
2022/01/23 07:10:18;;;;;;;23.70;14.73;;;1.30;99.90;;;;;;5045870;28;20028;-78
2022/01/23 07:12:43;;;;;;;21.80;14.00;;;1.30;99.90;;;;;;5032915;28;20021;-78
2022/01/23 07:15:09;;;;;;;21.60;14.60;;;1.40;99.90;;;;;;5031454;28;20036;-78
2022/01/23 07:17:39;;;;;;;25.33;13.63;;;1.30;99.90;;;;;;5040935;28;20045;-81
2022/01/23 07:20:06;;;;;;;25.13;14.63;;;1.30;99.90;;;;;;5052385;28;20024;-81
2022/01/23 07:22:31;;;;;;;25.47;14.23;;;1.40;99.90;;;;;;5051939;28;20094;-81
2022/01/23 07:25:01;;;;;;;25.70;14.90;;;1.40;99.90;;;;;;5052705;28;20476;-80
2022/01/23 07:27:29;;;;;;;23.60;15.40;;;1.40;99.90;;;;;;5051214;28;20025;-78
2022/01/23 07:29:55;;;;;;;21.97;14.23;;;1.40;99.90;;;;;;5037312;28;20029;-78
2022/01/23 07:32:21;;;;;;;22.43;13.13;;;1.50;99.90;;;;;;5052345;28;20029;-78
2022/01/23 07:34:46;;;;;;;23.57;14.93;;;1.40;99.90;;;;;;5052374;28;20025;-78
2022/01/23 07:37:13;;;;;;;24.53;15.90;;;1.40;99.90;;;;;;5032289;28;20033;-80
2022/01/23 07:39:39;;;;;;;25.97;15.47;;;1.40;99.90;;;;;;5035163;28;20021;-79
2022/01/23 07:42:06;;;;;;;22.33;15.50;;;1.40;99.90;;;;;;5051319;28;20040;-79
2022/01/23 07:44:31;;;;;;;26.07;15.90;;;1.40;99.90;;;;;;5051071;28;20128;-79
2022/01/23 07:46:57;;;;;;;25.27;16.13;;;1.40;99.90;;;;;;5044867;28;20156;-79
2022/01/23 07:49:23;;;;;;;25.27;14.93;;;1.40;99.90;;;;;;5038594;28;20047;-77
2022/01/23 07:51:49;;;;;;;22.13;15.33;;;1.40;99.90;;;;;;5043450;28;20374;-78
2022/01/23 07:54:14;;;;;;;26.73;15.90;;;1.40;99.90;;;;;;5038353;28;20378;-78
2022/01/23 07:56:43;;;;;;;24.43;15.80;;;1.50;99.90;;;;;;5042069;28;20037;-80
2022/01/23 07:59:09;;;;;;;23.23;14.87;;;1.50;99.90;;;;;;5033538;28;20142;-78
2022/01/23 08:01:38;;;;;;;21.27;13.80;;;1.50;99.90;;;;;;5032183;28;20030;-77
2022/01/23 08:04:05;;;;;;;20.13;14.43;;;1.60;99.90;;;;;;5035462;28;20025;-78
2022/01/23 08:06:33;;;;;;;23.63;15.70;;;1.60;99.90;;;;;;5035667;28;20465;-77
2022/01/23 08:08:59;;;;;;;23.83;15.97;;;1.60;99.90;;;;;;5045016;28;20013;-73
2022/01/23 08:11:25;;;;;;;21.70;14.20;;;1.60;99.90;;;;;;5045939;28;20018;-75
2022/01/23 08:13:50;;;;;;;21.93;14.57;;;1.70;99.90;;;;;;5064327;28;20037;-86
2022/01/23 08:16:16;;;;;;;21.53;14.00;;;1.70;99.90;;;;;;5043378;28;20029;-73
2022/01/23 08:18:42;;;;;;;21.70;15.23;;;1.80;99.90;;;;;;5046221;28;20108;-66
2022/01/23 08:21:08;;;;;;;21.40;14.13;;;1.90;99.90;;;;;;5047150;28;20116;-72
2022/01/23 08:23:33;;;;;;;21.73;14.73;;;1.90;99.90;;;;;;5051833;28;20053;-72
2022/01/23 08:25:59;;;;;;;21.83;14.50;;;1.90;99.90;;;;;;5049608;28;20091;-73
2022/01/23 08:28:24;;;;;;;25.53;16.57;;;1.90;99.90;;;;;;5056288;28;20053;-73
2022/01/23 08:30:50;;;;;;;21.33;15.70;;;1.80;99.90;;;;;;5054753;28;20495;-73
2022/01/23 08:33:16;;;;;;;24.23;16.97;;;1.80;99.90;;;;;;5056016;28;20025;-73
2022/01/23 08:35:43;;;;;;;27.70;17.67;;;1.90;99.90;;;;;;5055174;28;20471;-73
2022/01/23 08:38:09;;;;;;;26.33;17.10;;;1.80;99.90;;;;;;5056309;28;20066;-73
2022/01/23 08:40:47;;;;;;;25.83;17.07;;;1.80;99.90;;;;;;5055030;28;20029;-82
2022/01/23 08:43:15;;;;;;;26.10;17.50;;;1.80;99.90;;;;;;5050815;28;20159;-81
2022/01/23 08:45:41;;;;;;;27.30;17.80;;;1.90;99.90;;;;;;5052259;28;20114;-73
2022/01/23 08:48:07;;;;;;;25.67;16.87;;;1.90;99.90;;;;;;5054640;28;20529;-73
2022/01/23 08:50:33;;;;;;;24.90;16.20;;;1.90;99.90;;;;;;5053100;28;20457;-81
2022/01/23 08:52:59;;;;;;;26.67;16.70;;;1.90;99.90;;;;;;5050136;28;20032;-81
2022/01/23 08:55:25;;;;;;;24.33;16.50;;;1.90;99.90;;;;;;5049978;28;20757;-82
2022/01/23 08:57:50;;;;;;;25.57;16.70;;;2.00;99.90;;;;;;5048760;28;20044;-81
2022/01/23 09:00:18;;;;;;;24.37;17.33;;;2.00;99.90;;;;;;5035197;28;20041;-81
2022/01/23 09:02:44;;;;;;;24.17;15.97;;;2.00;99.90;;;;;;5049124;28;20137;-81
2022/01/23 09:05:10;;;;;;;25.33;16.77;;;2.00;99.90;;;;;;5049813;28;20032;-81
2022/01/23 09:07:35;;;;;;;25.20;16.87;;;2.00;99.90;;;;;;5049208;28;20040;-80
2022/01/23 09:10:03;;;;;;;24.67;16.53;;;2.00;99.90;;;;;;5049951;28;20064;-80
2022/01/23 09:13:04;;;;;;;25.03;16.90;;;2.10;99.90;;;;;;5050351;28;20036;-80
2022/01/23 09:15:15;;;;;;;25.47;17.37;;;2.10;99.90;;;;;;5052314;28;20389;-73
2022/01/23 09:17:40;;;;;;;25.37;17.13;;;2.10;99.90;;;;;;5055126;28;20025;-73
2022/01/23 09:20:06;;;;;;;29.50;17.73;;;2.20;99.90;;;;;;5055198;28;20078;-73
2022/01/23 09:22:32;;;;;;;23.43;16.50;;;2.20;99.90;;;;;;5055261;28;20033;-74
2022/01/23 09:25:00;;;;;;;24.83;17.17;;;2.20;99.90;;;;;;5055225;28;20029;-74
2022/01/23 09:27:26;;;;;;;28.97;17.23;;;2.30;99.90;;;;;;5053752;28;20053;-74
2022/01/23 09:29:54;;;;;;;26.50;16.23;;;2.30;99.90;;;;;;5048655;28;20021;-73
2022/01/23 09:32:22;;;;;;;22.40;16.40;;;2.30;99.90;;;;;;5040988;28;20051;-73
2022/01/23 09:34:48;;;;;;;24.73;16.33;;;2.40;99.90;;;;;;5048796;28;20469;-81
2022/01/23 09:37:15;;;;;;;27.33;17.47;;;2.40;99.90;;;;;;5041582;28;20049;-73
2022/01/23 09:39:45;;;;;;;24.87;16.13;;;2.40;99.90;;;;;;5035096;28;20072;-73
2022/01/23 09:42:23;;;;;;;26.67;17.33;;;2.50;99.90;;;;;;5034828;28;20029;-73
2022/01/23 09:45:04;;;;;;;24.80;16.90;;;2.50;99.90;;;;;;5048466;28;20477;-73
2022/01/23 09:47:30;;;;;;;24.40;16.30;;;2.60;99.90;;;;;;5054391;28;20028;-73
2022/01/23 09:50:00;;;;;;;23.77;16.67;;;2.60;99.90;;;;;;5054643;28;20021;-73
2022/01/23 09:52:29;;;;;;;24.33;17.03;;;2.60;99.90;;;;;;5054550;28;20093;-74
2022/01/23 09:54:57;;;;;;;25.50;17.53;;;2.70;99.90;;;;;;5054100;28;20480;-72
2022/01/23 09:57:31;;;;;;;24.83;16.80;;;2.70;99.90;;;;;;5040551;28;20370;-76
2022/01/23 10:00:00;;;;;;;22.47;16.40;;;2.70;99.90;;;;;;5051697;28;20412;-79
2022/01/23 10:02:30;;;;;;;23.60;16.47;;;2.80;99.90;;;;;;5042595;28;20083;-78
2022/01/23 10:04:56;;;;;;;22.40;16.40;;;2.80;99.90;;;;;;5045234;28;20029;-78
2022/01/23 10:07:22;;;;;;;22.83;16.27;;;2.90;99.90;;;;;;5048507;28;20032;-79
2022/01/23 10:09:54;;;;;;;24.47;16.53;;;2.90;99.90;;;;;;5044216;28;20025;-77
2022/01/23 10:12:23;;;;;;;22.30;15.63;;;2.90;99.90;;;;;;5053151;28;20127;-77
2022/01/23 10:14:49;;;;;;;20.20;14.67;;;3.10;99.90;;;;;;5054050;28;20028;-76
2022/01/23 10:17:15;;;;;;;22.13;15.13;;;3.20;99.90;;;;;;5053082;28;20021;-77
2022/01/23 10:19:41;;;;;;;19.60;14.57;;;3.30;99.90;;;;;;5054204;28;20106;-77
2022/01/23 10:22:06;;;;;;;20.77;15.10;;;3.30;99.90;;;;;;5053106;28;20032;-79
2022/01/23 10:24:32;;;;;;;22.70;15.70;;;3.20;99.90;;;;;;5052743;28;20021;-79
2022/01/23 10:27:00;;;;;;;17.93;13.03;;;3.20;99.90;;;;;;5053139;28;20025;-79
2022/01/23 10:29:30;;;;;;;16.83;13.10;;;3.30;99.90;;;;;;5054317;28;20021;-78
2022/01/23 10:32:04;;;;;;;18.30;12.80;;;3.30;99.90;;;;;;5054200;28;20100;-78
2022/01/23 10:34:40;;;;;;;19.20;14.50;;;3.30;99.90;;;;;;5054251;28;20032;-78
2022/01/23 10:37:06;;;;;;;20.97;15.50;;;3.30;99.90;;;;;;5054219;28;20029;-78
2022/01/23 10:39:46;;;;;;;21.63;16.03;;;3.40;99.90;;;;;;5054150;28;20119;-78
2022/01/23 10:42:46;;;;;;;23.63;15.20;;;3.40;99.90;;;;;;5053931;28;20025;-78
2022/01/23 10:50:42;;;;;;;21.57;15.17;;;3.40;99.90;;;;;;5050680;28;20115;-82
2022/01/23 10:53:08;;;;;;;19.73;14.13;;;3.40;99.90;;;;;;5049396;28;20099;-82
2022/01/23 10:55:34;;;;;;;22.13;15.57;;;3.50;99.90;;;;;;5049044;28;20103;-82
2022/01/23 10:58:03;;;;;;;21.87;14.80;;;3.70;99.90;;;;;;5049028;28;20036;-82
2022/01/23 11:00:36;;;;;;;21.30;15.03;;;3.70;99.90;;;;;;5049643;28;20017;-82
2022/01/23 11:03:31;;;;;;;18.73;13.70;;;3.70;99.90;;;;;;5049416;28;20132;-82
2022/01/23 11:05:57;;;;;;;20.57;14.87;;;3.70;99.90;;;;;;5046453;28;20048;-80
2022/01/23 11:08:30;;;;;;;22.73;15.77;;;3.70;99.90;;;;;;5056921;28;20021;-80
2022/01/23 11:10:59;;;;;;;24.67;17.33;;;3.70;99.90;;;;;;5056384;28;20326;-80
2022/01/23 11:19:18;;;;;;;26.27;17.30;;;3.70;99.90;;;;;;5047506;28;20108;-82
2022/01/23 11:21:44;;;;;;;21.83;15.57;;;3.70;99.90;;;;;;5048827;28;20108;-82
2022/01/23 11:24:12;;;;;;;26.20;17.23;;;3.80;99.90;;;;;;5048312;28;20021;-82
2022/01/23 11:26:38;;;;;;;22.57;16.23;;;3.80;99.90;;;;;;5038654;28;20426;-82
2022/01/23 11:29:17;;;;;;;22.83;15.90;;;3.80;99.90;;;;;;5045258;28;20025;-82
2022/01/23 11:31:43;;;;;;;21.70;16.00;;;3.80;99.90;;;;;;5032134;28;20032;-82
2022/01/23 11:34:15;;;;;;;22.07;16.50;;;4.20;99.90;;;;;;5029815;28;20113;-82
2022/01/23 11:36:42;;;;;;;21.50;16.10;;;4.20;99.90;;;;;;5029755;28;20030;-81
2022/01/23 11:39:16;;;;;;;21.90;16.57;;;4.20;99.90;;;;;;5033543;28;20034;-81
2022/01/23 11:56:25;;;;;;;22.10;15.63;;;4.60;99.90;;;;;;5029972;28;20032;-78
2022/01/23 11:59:01;;;;;;;20.67;15.53;;;4.70;99.90;;;;;;5031681;28;20498;-78
2022/01/23 12:01:27;;;;;;;20.47;15.13;;;5.00;99.90;;;;;;5039705;28;20035;-77
2022/01/23 12:04:08;;;;;;;19.83;15.30;;;4.80;99.90;;;;;;5042406;28;20567;-77
2022/01/23 12:06:41;;;;;;;21.33;15.73;;;4.90;99.90;;;;;;5047530;28;20045;-77
2022/01/23 12:09:13;;;;;;;20.43;14.00;;;5.00;99.90;;;;;;5047874;28;20025;-78
2022/01/23 12:11:47;;;;;;;18.90;13.60;;;5.00;99.90;;;;;;5039355;28;20025;-78
2022/01/23 12:16:59;;;;;;;21.03;14.93;;;5.30;99.90;;;;;;5046696;28;20164;-78
2022/01/23 12:19:28;;;;;;;36.07;24.80;;;5.40;99.90;;;;;;5038841;28;20535;-79
2022/01/23 12:21:56;;;;;;;21.53;14.53;;;5.00;99.90;;;;;;5035579;28;20497;-79
2022/01/23 12:24:24;;;;;;;22.70;16.30;;;5.20;99.90;;;;;;5033405;28;20033;-78
2022/01/23 12:26:52;;;;;;;22.80;15.27;;;5.10;99.90;;;;;;5036950;28;20564;-79
2022/01/23 12:29:26;;;;;;;20.50;14.23;;;5.30;99.90;;;;;;5054142;28;20021;-79
2022/01/23 12:32:30;;;;;;;21.33;14.60;;;5.50;99.90;;;;;;5052750;28;20028;-78
2022/01/23 12:35:01;;;;;;;21.93;14.50;;;5.40;99.90;;;;;;5010107;28;20430;-78
2022/01/23 12:38:09;;;;;;;20.33;14.23;;;5.50;99.90;;;;;;5011566;28;20113;-80
2022/01/23 12:40:37;;;;;;;21.17;14.50;;;5.40;99.90;;;;;;5038195;28;20119;-78
2022/01/23 12:43:18;;;;;;;20.13;13.87;;;5.30;99.90;;;;;;5036310;28;20040;-79
2022/01/23 12:45:56;;;;;;;21.00;15.07;;;5.40;99.90;;;;;;5051816;28;20041;-81
2022/01/23 12:48:25;;;;;;;21.70;15.47;;;5.30;99.90;;;;;;5040064;28;20087;-79
2022/01/23 12:50:53;;;;;;;21.37;14.47;;;5.30;99.90;;;;;;5033136;28;20574;-79
2022/01/23 12:53:19;;;;;;;21.13;14.83;;;5.10;99.90;;;;;;5033678;28;20466;-79
2022/01/23 12:56:10;;;;;;;22.13;16.20;;;5.00;99.90;;;;;;5048257;28;20056;-79
2022/01/23 12:58:36;;;;;;;30.40;20.30;;;4.80;99.90;;;;;;5036909;28;20026;-79
2022/01/23 13:01:07;;;;;;;26.20;17.70;;;4.70;99.90;;;;;;5045020;28;20139;-79
2022/01/23 13:03:33;;;;;;;35.77;22.37;;;4.60;99.90;;;;;;5051521;28;20025;-80
2022/01/23 13:05:58;;;;;;;37.93;22.47;;;4.70;99.90;;;;;;5052623;28;20112;-80
2022/01/23 13:08:30;;;;;;;21.93;15.47;;;4.50;99.90;;;;;;5052765;28;20029;-79
2022/01/23 13:32:06;;;;;;;19.08;13.13;;;5.50;99.90;;;;;;5035659;28;20117;-74
2022/01/23 13:34:41;;;;;;;17.73;12.10;;;5.30;99.90;;;;;;5035202;28;20470;-75
2022/01/23 13:37:15;;;;;;;17.33;12.15;;;5.20;99.90;;;;;;5035073;28;20025;-74
2022/01/23 13:39:53;;;;;;;15.70;10.67;;;5.10;99.90;;;;;;5050137;28;20382;-75
2022/01/23 13:51:25;;;;;;;18.77;12.17;;;5.10;99.90;;;;;;5054689;28;20109;-76
2022/01/23 14:04:25;;;;;;;19.17;13.57;;;4.40;99.90;;;;;;5047744;28;20549;-75
2022/01/23 14:06:51;;;;;;;18.13;12.37;;;4.30;99.90;;;;;;5054140;28;20055;-75
2022/01/23 14:09:19;;;;;;;18.50;12.90;;;4.40;99.90;;;;;;5042803;28;20024;-73
2022/01/23 14:11:50;;;;;;;19.07;12.40;;;4.60;99.90;;;;;;5055015;28;20389;-74
2022/01/23 14:14:27;;;;;;;23.40;15.70;;;4.60;99.90;;;;;;5053198;28;20025;-75
2022/01/23 14:16:55;;;;;;;20.30;13.83;;;4.50;99.90;;;;;;5048775;28;20025;-66
2022/01/23 14:19:29;;;;;;;22.47;14.03;;;4.50;99.90;;;;;;5052035;28;20119;-73
2022/01/23 14:21:59;;;;;;;20.90;13.93;;;4.50;99.90;;;;;;5054294;28;20025;-74
2022/01/23 14:24:37;;;;;;;23.73;16.53;;;4.40;99.90;;;;;;5061132;28;20039;-81
2022/01/23 14:27:13;;;;;;;32.97;21.57;;;4.40;99.90;;;;;;5056094;28;20060;-79
2022/01/23 14:29:51;;;;;;;21.03;14.90;;;4.20;99.90;;;;;;5047541;28;20500;-79
2022/01/23 14:32:33;;;;;;;19.83;13.87;;;4.30;99.90;;;;;;5044299;28;20028;-79
2022/01/23 14:35:07;;;;;;;19.70;13.23;;;4.20;99.90;;;;;;5047304;28;20036;-79
2022/01/23 14:37:34;;;;;;;20.40;13.50;;;4.20;99.90;;;;;;5046797;28;20028;-80
2022/01/23 14:40:09;;;;;;;19.60;13.03;;;4.20;99.90;;;;;;5046897;28;20396;-78
2022/01/23 14:42:35;;;;;;;19.07;13.43;;;4.20;99.90;;;;;;5052686;28;20831;-79
2022/01/23 14:45:08;;;;;;;19.93;13.60;;;4.10;99.90;;;;;;5039417;28;20047;-80
2022/01/23 14:47:39;;;;;;;19.40;13.77;;;4.20;99.90;;;;;;5046817;28;20033;-78
2022/01/23 14:50:10;;;;;;;21.13;13.60;;;4.10;99.90;;;;;;5049532;28;20021;-79
2022/01/23 14:52:36;;;;;;;24.17;15.73;;;3.90;99.90;;;;;;5049139;28;20021;-80
2022/01/23 14:55:03;;;;;;;23.17;15.40;;;4.00;99.90;;;;;;5052807;28;20083;-80
2022/01/23 14:57:32;;;;;;;20.83;14.73;;;4.20;99.90;;;;;;5052127;28;20036;-78
2022/01/23 14:59:59;;;;;;;20.27;13.60;;;4.20;99.90;;;;;;5052808;28;20056;-78
2022/01/23 15:02:25;;;;;;;22.10;14.70;;;4.30;99.90;;;;;;5052898;28;20032;-78
2022/01/23 15:04:51;;;;;;;21.77;14.23;;;4.30;99.90;;;;;;5051834;28;20385;-79
2022/01/23 15:07:18;;;;;;;20.57;13.43;;;4.40;99.90;;;;;;5051607;28;20021;-78
2022/01/23 15:09:46;;;;;;;22.63;14.30;;;4.40;99.90;;;;;;5052551;28;20112;-77
2022/01/23 15:12:13;;;;;;;28.57;21.57;;;4.20;99.90;;;;;;5051195;28;20024;-78
2022/01/23 15:14:40;;;;;;;25.07;17.57;;;3.90;99.90;;;;;;5053028;28;20048;-77
2022/01/23 15:17:06;;;;;;;21.80;14.53;;;3.80;99.90;;;;;;5053116;28;20035;-78
2022/01/23 15:19:33;;;;;;;20.83;13.93;;;3.70;99.90;;;;;;5051471;28;20390;-78
2022/01/23 15:21:58;;;;;;;22.93;15.40;;;3.80;99.90;;;;;;5051470;28;20539;-78
2022/01/23 15:24:24;;;;;;;21.53;14.23;;;3.80;99.90;;;;;;5052809;28;20032;-78
2022/01/23 15:26:49;;;;;;;25.67;14.73;;;3.70;99.90;;;;;;5052961;28;20096;-78
2022/01/23 15:29:15;;;;;;;20.90;14.27;;;3.70;99.90;;;;;;5052494;28;20021;-78
2022/01/23 15:31:41;;;;;;;24.57;15.57;;;3.60;99.90;;;;;;5052746;28;20040;-79
2022/01/23 15:34:06;;;;;;;22.67;14.33;;;3.40;99.90;;;;;;5052365;28;20419;-80
2022/01/23 15:36:32;;;;;;;23.47;14.13;;;3.30;99.90;;;;;;5050820;28;20051;-83
2022/01/23 15:38:58;;;;;;;22.47;14.33;;;3.30;99.90;;;;;;5050096;28;20466;-81
2022/01/23 15:41:24;;;;;;;22.27;14.87;;;3.20;99.90;;;;;;5050266;28;20045;-84
2022/01/23 15:43:50;;;;;;;25.00;16.07;;;3.20;99.90;;;;;;5050406;28;20063;-84
2022/01/23 15:46:15;;;;;;;25.27;16.33;;;3.10;99.90;;;;;;5051825;28;20025;-86
2022/01/23 15:48:42;;;;;;;25.40;15.47;;;3.00;99.90;;;;;;5055294;28;20059;-88
2022/01/23 15:51:09;;;;;;;27.67;15.90;;;2.90;99.90;;;;;;5053936;28;20035;-88
2022/01/23 15:53:35;;;;;;;24.97;15.93;;;3.00;99.90;;;;;;5054902;28;20028;-88
2022/01/23 15:56:01;;;;;;;22.53;14.73;;;3.00;99.90;;;;;;5053904;28;20029;-88
2022/01/23 15:58:28;;;;;;;26.33;15.83;;;2.90;99.90;;;;;;5053168;28;20041;-85
2022/01/23 16:00:55;;;;;;;23.77;15.00;;;2.90;99.90;;;;;;5054514;28;20025;-83
2022/01/23 16:03:20;;;;;;;24.90;15.80;;;2.90;99.90;;;;;;5053528;28;20047;-81
2022/01/23 16:05:46;;;;;;;25.23;16.17;;;2.80;99.90;;;;;;5052133;28;20033;-82
2022/01/23 16:08:13;;;;;;;27.30;17.37;;;2.80;99.90;;;;;;5051176;28;20058;-80
2022/01/23 16:10:39;;;;;;;25.50;16.60;;;2.80;99.90;;;;;;5053569;28;20028;-82
2022/01/23 16:13:04;;;;;;;27.10;17.00;;;2.90;99.90;;;;;;5051001;28;20025;-82
2022/01/23 16:15:31;;;;;;;28.10;17.57;;;3.10;99.90;;;;;;5049957;28;20049;-85
2022/01/23 16:18:00;;;;;;;26.50;16.37;;;3.00;99.90;;;;;;5032696;28;20029;-85
2022/01/23 16:20:26;;;;;;;30.63;17.43;;;3.00;99.90;;;;;;5045319;28;20065;-87